Time;durP1;ratioP1;P1;durP2;ratioP2;P2;SDS_P1;SDS_P2;PMS_P1;PMS_P2;Temp;Humidity;BMP_temperature;BMP_pressure;BME280_temperature;BME280_humidity;BME280_pressure;Samples;Min_cycle;Max_cycle;Signal;HPM_P1;HPM_P2
2024/01/10 00:01:26;;;;;;;1.55;1.00;;;-2.80;99.90;;;;;;4994093;28;20482;-81
2024/01/10 00:03:55;;;;;;;1.48;1.33;;;-2.80;99.90;;;;;;4995013;28;20038;-81
2024/01/10 00:06:21;;;;;;;3.15;1.33;;;-2.80;99.90;;;;;;4994719;28;20501;-80
2024/01/10 00:08:47;;;;;;;2.92;1.25;;;-2.90;99.90;;;;;;4994778;28;20019;-81
2024/01/10 00:11:13;;;;;;;2.55;1.38;;;-2.90;99.90;;;;;;4993726;28;20397;-80
2024/01/10 00:13:38;;;;;;;4.18;1.67;;;-2.90;99.90;;;;;;4994637;28;20126;-81
2024/01/10 00:16:04;;;;;;;3.03;1.55;;;-2.80;99.90;;;;;;4992822;28;20110;-80
2024/01/10 00:18:30;;;;;;;2.33;1.63;;;-2.80;99.90;;;;;;4992917;28;20057;-80
2024/01/10 00:20:56;;;;;;;1.30;1.20;;;-2.80;99.90;;;;;;4993200;28;20057;-79
2024/01/10 00:23:22;;;;;;;1.60;1.40;;;-2.70;99.90;;;;;;4993201;28;20371;-80
2024/01/10 00:25:48;;;;;;;3.05;1.30;;;-2.60;99.90;;;;;;4994505;28;20033;-82
2024/01/10 00:28:17;;;;;;;3.55;1.40;;;-2.60;99.90;;;;;;4993600;28;20053;-80
2024/01/10 00:30:47;;;;;;;1.00;0.90;;;-2.70;99.90;;;;;;4993487;28;20034;-81
2024/01/10 00:33:13;;;;;;;4.97;1.92;;;-2.70;99.90;;;;;;4994240;28;20033;-81
2024/01/10 00:35:39;;;;;;;2.42;1.50;;;-2.80;99.90;;;;;;4994415;28;20030;-80
2024/01/10 00:38:04;;;;;;;3.13;1.50;;;-2.90;99.90;;;;;;4994674;28;20038;-80
2024/01/10 00:40:30;;;;;;;2.30;1.42;;;-2.90;99.90;;;;;;4994654;28;20071;-81
2024/01/10 00:42:56;;;;;;;3.78;1.60;;;-2.90;99.90;;;;;;4992862;28;20033;-80
2024/01/10 00:45:21;;;;;;;3.08;1.40;;;-2.90;99.90;;;;;;4992797;28;20329;-81
2024/01/10 00:47:50;;;;;;;7.72;1.63;;;-2.90;99.90;;;;;;4993982;28;20394;-82
2024/01/10 00:50:16;;;;;;;1.48;0.90;;;-2.90;99.90;;;;;;4990055;28;20042;-82
2024/01/10 00:52:43;;;;;;;2.22;1.10;;;-2.90;99.90;;;;;;4992832;28;20412;-81
2024/01/10 00:55:09;;;;;;;6.32;1.42;;;-3.00;99.90;;;;;;4993943;28;20030;-80
2024/01/10 00:57:38;;;;;;;1.77;1.30;;;-3.00;99.90;;;;;;4993337;28;20026;-80
2024/01/10 01:00:05;;;;;;;5.57;1.88;;;-3.00;99.90;;;;;;4993470;28;20037;-79
2024/01/10 01:02:31;;;;;;;2.85;1.65;;;-3.10;99.90;;;;;;4992144;28;20041;-80
2024/01/10 01:04:56;;;;;;;1.90;1.25;;;-3.10;99.90;;;;;;4992722;28;20394;-80
2024/01/10 01:07:22;;;;;;;2.53;1.35;;;-3.20;99.90;;;;;;4992486;28;20027;-80
2024/01/10 01:09:48;;;;;;;3.28;1.83;;;-3.10;99.90;;;;;;4994403;28;20034;-80
2024/01/10 01:12:13;;;;;;;2.92;1.15;;;-3.20;99.90;;;;;;4992570;28;20030;-80
2024/01/10 01:14:39;;;;;;;2.10;1.40;;;-3.20;99.90;;;;;;4993582;28;20030;-80
2024/01/10 01:17:04;;;;;;;5.35;1.40;;;-3.20;99.90;;;;;;4955940;28;20045;-79
2024/01/10 01:19:30;;;;;;;3.30;1.15;;;-3.20;99.90;;;;;;4956095;28;20043;-80
2024/01/10 01:21:57;;;;;;;2.97;1.42;;;-3.10;99.90;;;;;;4972131;28;20073;-81
2024/01/10 01:24:22;;;;;;;1.88;1.08;;;-3.10;99.90;;;;;;4955812;28;20039;-81
2024/01/10 01:26:48;;;;;;;4.25;1.50;;;-3.20;99.90;;;;;;4971909;28;20106;-81
2024/01/10 01:29:14;;;;;;;2.92;1.88;;;-3.30;99.90;;;;;;4958966;28;20062;-81
2024/01/10 01:31:39;;;;;;;6.20;1.38;;;-3.40;99.90;;;;;;4975897;28;20065;-81
2024/01/10 01:34:05;;;;;;;2.08;1.33;;;-3.50;99.90;;;;;;4976180;28;20455;-81
2024/01/10 01:36:30;;;;;;;4.47;2.03;;;-3.40;99.90;;;;;;4959739;28;20459;-81
2024/01/10 01:38:56;;;;;;;1.95;1.25;;;-3.40;99.90;;;;;;4975232;28;20035;-81
2024/01/10 01:41:22;;;;;;;2.40;1.25;;;-3.30;99.90;;;;;;4976303;28;20035;-81
2024/01/10 01:43:48;;;;;;;4.00;1.60;;;-3.30;99.90;;;;;;4975970;28;20046;-81
2024/01/10 01:46:14;;;;;;;2.08;1.48;;;-3.30;99.90;;;;;;4976008;28;20142;-82
2024/01/10 01:48:40;;;;;;;2.72;1.48;;;-3.30;99.90;;;;;;4985530;28;20037;-81
2024/01/10 01:51:07;;;;;;;2.30;1.30;;;-3.30;99.90;;;;;;4998165;28;20501;-81
2024/01/10 01:53:36;;;;;;;4.97;1.60;;;-3.40;99.90;;;;;;4993513;28;20093;-81
2024/01/10 01:56:06;;;;;;;2.63;1.75;;;-3.30;99.90;;;;;;4997925;28;20046;-81
2024/01/10 01:58:33;;;;;;;2.83;1.63;;;-3.30;99.90;;;;;;4996709;28;20030;-81
2024/01/10 02:01:01;;;;;;;1.25;1.15;;;-3.30;99.90;;;;;;4996067;28;20033;-81
2024/01/10 02:03:26;;;;;;;5.95;2.13;;;-3.20;99.90;;;;;;4996874;28;20018;-80
2024/01/10 02:05:53;;;;;;;1.65;1.40;;;-3.20;99.90;;;;;;4996269;28;20109;-81
2024/01/10 02:08:19;;;;;;;5.55;1.58;;;-3.10;99.90;;;;;;4995629;28;20046;-81
2024/01/10 02:10:44;;;;;;;2.13;1.25;;;-3.10;99.90;;;;;;4996086;28;20418;-82
2024/01/10 02:13:11;;;;;;;3.65;1.77;;;-3.10;99.90;;;;;;4997318;28;20073;-82
2024/01/10 02:15:38;;;;;;;3.00;1.52;;;-3.10;99.90;;;;;;4997019;28;20018;-81
2024/01/10 02:18:05;;;;;;;2.95;1.67;;;-3.20;99.90;;;;;;4995746;28;20019;-82
2024/01/10 02:20:31;;;;;;;4.10;3.03;;;-3.20;99.90;;;;;;4995509;28;20113;-80
2024/01/10 02:22:57;;;;;;;5.55;1.98;;;-3.20;99.90;;;;;;4996528;28;20118;-82
2024/01/10 02:25:23;;;;;;;1.83;1.20;;;-3.20;99.90;;;;;;4995156;28;20517;-82
2024/01/10 02:27:48;;;;;;;2.20;1.02;;;-3.20;99.90;;;;;;4995090;28;20372;-81
2024/01/10 02:30:14;;;;;;;4.90;1.92;;;-3.30;99.90;;;;;;4996532;28;20018;-82
2024/01/10 02:32:40;;;;;;;3.58;1.90;;;-3.20;99.90;;;;;;4996553;28;20398;-81
2024/01/10 02:35:06;;;;;;;15.40;4.78;;;-3.20;99.90;;;;;;4996622;28;20030;-81
2024/01/10 02:37:33;;;;;;;5.80;2.58;;;-3.30;99.90;;;;;;4996545;28;20113;-80
2024/01/10 02:39:59;;;;;;;3.33;1.42;;;-3.30;99.90;;;;;;4988149;28;20055;-81
2024/01/10 02:42:26;;;;;;;5.03;2.03;;;-3.20;99.90;;;;;;4995066;28;20104;-80
2024/01/10 02:44:52;;;;;;;3.38;1.35;;;-3.20;99.90;;;;;;4996431;28;20037;-80
2024/01/10 02:47:18;;;;;;;5.15;2.25;;;-3.30;99.90;;;;;;4995121;28;20038;-80
2024/01/10 02:49:43;;;;;;;4.22;2.00;;;-3.20;99.90;;;;;;4996257;28;20042;-81
2024/01/10 02:52:09;;;;;;;5.22;2.15;;;-3.20;99.90;;;;;;4994889;28;20069;-82
2024/01/10 02:54:35;;;;;;;6.82;2.47;;;-3.20;99.90;;;;;;4994745;28;20026;-81
2024/01/10 02:57:00;;;;;;;2.85;1.48;;;-3.20;99.90;;;;;;4996290;28;20034;-81
2024/01/10 02:59:26;;;;;;;4.50;1.85;;;-3.20;99.90;;;;;;4994896;28;20487;-80
2024/01/10 03:01:52;;;;;;;6.35;2.03;;;-3.20;99.90;;;;;;4991845;28;20038;-80
2024/01/10 03:04:18;;;;;;;2.95;2.10;;;-3.20;99.90;;;;;;4994437;28;20110;-81
2024/01/10 03:06:43;;;;;;;5.97;2.30;;;-3.20;99.90;;;;;;4995250;28;20117;-81
2024/01/10 03:09:09;;;;;;;3.13;1.67;;;-3.20;99.90;;;;;;4995182;28;20523;-81
2024/01/10 03:11:35;;;;;;;3.38;2.25;;;-3.20;99.90;;;;;;4994689;28;20505;-81
2024/01/10 03:14:03;;;;;;;2.95;1.80;;;-3.30;99.90;;;;;;4993928;28;20022;-81
2024/01/10 03:16:30;;;;;;;10.32;2.40;;;-3.40;99.90;;;;;;4995822;28;20015;-82
2024/01/10 03:18:57;;;;;;;3.38;1.63;;;-3.40;99.90;;;;;;4995809;28;20502;-81
2024/01/10 03:21:24;;;;;;;2.58;1.83;;;-3.30;99.90;;;;;;4994138;28;20030;-81
2024/01/10 03:23:56;;;;;;;3.25;1.67;;;-3.30;99.90;;;;;;4995810;28;20367;-81
2024/01/10 03:26:22;;;;;;;5.00;1.77;;;-3.30;99.90;;;;;;4995877;28;20025;-81
2024/01/10 03:28:48;;;;;;;3.90;1.90;;;-3.30;99.90;;;;;;4996024;28;20030;-80
2024/01/10 03:31:14;;;;;;;3.03;2.05;;;-3.30;99.90;;;;;;4995681;28;20456;-80
2024/01/10 03:33:39;;;;;;;4.43;2.17;;;-3.30;99.90;;;;;;4995585;28;20058;-80
2024/01/10 03:36:08;;;;;;;5.53;2.50;;;-3.20;99.90;;;;;;4995533;28;20027;-80
2024/01/10 03:38:34;;;;;;;1.20;1.10;;;-3.30;99.90;;;;;;4995421;28;20368;-80
2024/01/10 03:41:00;;;;;;;7.13;1.63;;;-3.30;99.90;;;;;;4994115;28;20025;-80
2024/01/10 03:43:25;;;;;;;5.13;2.25;;;-3.30;99.90;;;;;;4994056;28;20552;-80
2024/01/10 03:45:51;;;;;;;2.75;1.80;;;-3.30;99.90;;;;;;4994035;28;20022;-80
2024/01/10 03:48:16;;;;;;;4.93;1.88;;;-3.40;99.90;;;;;;4993884;28;20030;-81
2024/01/10 03:50:42;;;;;;;4.05;2.38;;;-3.40;99.90;;;;;;4993479;28;20048;-81
2024/01/10 03:53:08;;;;;;;5.28;1.48;;;-3.30;99.90;;;;;;4994990;28;20029;-80
2024/01/10 03:55:34;;;;;;;4.07;2.13;;;-3.40;99.90;;;;;;4994933;28;20062;-81
2024/01/10 03:57:59;;;;;;;3.60;1.63;;;-3.50;99.90;;;;;;4994920;28;20026;-81
2024/01/10 04:00:25;;;;;;;4.40;2.03;;;-3.60;99.90;;;;;;4993744;28;20026;-80
2024/01/10 04:02:52;;;;;;;2.63;1.98;;;-3.50;99.90;;;;;;4993572;28;20038;-80
2024/01/10 04:05:20;;;;;;;5.10;2.10;;;-3.60;99.90;;;;;;4994814;28;20049;-81
2024/01/10 04:07:46;;;;;;;2.72;1.20;;;-3.60;99.90;;;;;;4994881;28;20022;-81
2024/01/10 04:10:14;;;;;;;6.47;2.65;;;-3.60;99.90;;;;;;4994908;28;20533;-80
2024/01/10 04:12:40;;;;;;;3.80;2.03;;;-3.60;99.90;;;;;;4993359;28;20022;-80
2024/01/10 04:15:06;;;;;;;6.03;2.47;;;-3.50;99.90;;;;;;4993324;28;20182;-81
2024/01/10 04:17:32;;;;;;;2.92;2.03;;;-3.60;99.90;;;;;;4990763;28;20089;-81
2024/01/10 04:19:58;;;;;;;4.00;1.73;;;-3.60;99.90;;;;;;4994938;28;20346;-81
2024/01/10 04:22:24;;;;;;;3.33;2.15;;;-3.70;99.90;;;;;;4992997;28;20027;-80
2024/01/10 04:24:50;;;;;;;4.07;2.17;;;-3.80;99.90;;;;;;4994666;28;20030;-81
2024/01/10 04:27:16;;;;;;;2.00;1.38;;;-3.80;99.90;;;;;;4994585;28;20491;-81
2024/01/10 04:29:42;;;;;;;6.78;1.77;;;-3.80;99.90;;;;;;4992992;28;20030;-81
2024/01/10 04:32:08;;;;;;;2.88;1.80;;;-3.70;99.90;;;;;;4994317;28;20022;-81
2024/01/10 04:34:33;;;;;;;3.97;2.10;;;-3.80;99.90;;;;;;4994498;28;20399;-81
2024/01/10 04:36:59;;;;;;;2.95;1.45;;;-3.70;99.90;;;;;;4994293;28;20056;-81
2024/01/10 04:39:25;;;;;;;4.60;2.42;;;-3.80;99.90;;;;;;4992896;28;20019;-80
2024/01/10 04:41:50;;;;;;;5.00;2.03;;;-3.80;99.90;;;;;;4992784;28;20026;-80
2024/01/10 04:44:16;;;;;;;5.75;1.88;;;-3.60;99.90;;;;;;4992925;28;20030;-80
2024/01/10 04:46:42;;;;;;;4.70;2.17;;;-3.70;99.90;;;;;;4992816;28;20029;-80
2024/01/10 04:49:08;;;;;;;3.88;1.95;;;-3.70;99.90;;;;;;4992772;28;20034;-80
2024/01/10 04:51:34;;;;;;;3.03;1.48;;;-3.70;99.90;;;;;;4992764;28;20026;-80
2024/01/10 04:54:00;;;;;;;3.47;1.70;;;-3.70;99.90;;;;;;4993050;28;20033;-81
2024/01/10 04:56:26;;;;;;;6.35;1.98;;;-3.70;99.90;;;;;;4993440;28;20027;-80
2024/01/10 04:58:51;;;;;;;2.65;1.55;;;-3.70;99.90;;;;;;4992903;28;20037;-77
2024/01/10 05:01:18;;;;;;;3.10;1.52;;;-3.70;99.90;;;;;;4992533;28;20439;-76
2024/01/10 05:03:44;;;;;;;4.03;1.83;;;-3.80;99.90;;;;;;4991667;28;20058;-76
2024/01/10 05:06:09;;;;;;;2.75;1.75;;;-3.70;99.90;;;;;;4992516;28;20437;-77
2024/01/10 05:08:35;;;;;;;4.80;1.52;;;-3.80;99.90;;;;;;4993650;28;20101;-76
2024/01/10 05:11:01;;;;;;;2.92;2.22;;;-3.80;99.90;;;;;;4993679;28;20022;-76
2024/01/10 05:13:26;;;;;;;2.75;1.45;;;-3.80;99.90;;;;;;4993595;28;20475;-78
2024/01/10 05:15:52;;;;;;;3.80;2.03;;;-3.80;99.90;;;;;;4992618;28;20019;-78
2024/01/10 05:18:18;;;;;;;1.80;1.65;;;-3.70;99.90;;;;;;4993702;28;20022;-77
2024/01/10 05:20:44;;;;;;;6.70;2.20;;;-3.60;99.90;;;;;;4992516;28;20022;-78
2024/01/10 05:23:10;;;;;;;13.93;2.40;;;-3.60;99.90;;;;;;4993612;28;20399;-77
2024/01/10 05:25:36;;;;;;;6.63;1.95;;;-3.70;99.90;;;;;;4993175;28;20544;-78
2024/01/10 05:28:02;;;;;;;5.28;2.60;;;-3.70;99.90;;;;;;4993640;28;20026;-77
2024/01/10 05:30:30;;;;;;;4.72;2.50;;;-3.80;99.90;;;;;;4992197;28;20114;-76
2024/01/10 05:32:55;;;;;;;7.78;2.55;;;-3.80;99.90;;;;;;4992221;28;20022;-77
2024/01/10 05:35:21;;;;;;;3.80;2.13;;;-3.80;99.90;;;;;;4992154;28;20044;-78
2024/01/10 05:37:48;;;;;;;6.95;2.45;;;-3.80;99.90;;;;;;4993338;28;20026;-78
2024/01/10 05:40:14;;;;;;;2.53;1.88;;;-3.80;99.90;;;;;;4993358;28;20030;-78
2024/01/10 05:42:39;;;;;;;6.80;2.38;;;-3.70;99.90;;;;;;4992057;28;20023;-77
2024/01/10 05:45:06;;;;;;;2.88;1.70;;;-3.70;99.90;;;;;;4955335;28;20134;-78
2024/01/10 05:47:31;;;;;;;4.97;1.95;;;-3.70;99.90;;;;;;4971575;28;20253;-78
2024/01/10 05:49:57;;;;;;;1.75;1.30;;;-3.80;99.90;;;;;;4955337;28;20043;-78
2024/01/10 05:52:23;;;;;;;5.50;2.50;;;-3.70;99.90;;;;;;4971790;28;20113;-79
2024/01/10 05:54:48;;;;;;;3.80;1.85;;;-3.80;99.90;;;;;;4971534;28;20081;-78
2024/01/10 05:57:15;;;;;;;7.43;2.65;;;-3.70;99.90;;;;;;4955802;28;20034;-77
2024/01/10 05:59:41;;;;;;;4.82;3.28;;;-3.80;99.90;;;;;;4955519;28;20057;-79
2024/01/10 06:02:07;;;;;;;5.07;2.05;;;-3.80;99.90;;;;;;4969056;28;20039;-79
2024/01/10 06:04:32;;;;;;;4.78;2.63;;;-3.80;99.90;;;;;;4971792;28;20038;-78
2024/01/10 06:06:58;;;;;;;4.05;2.22;;;-3.70;99.90;;;;;;4955466;28;20022;-80
2024/01/10 06:09:24;;;;;;;2.83;2.42;;;-3.70;99.90;;;;;;4978884;28;20023;-82
2024/01/10 06:11:52;;;;;;;5.03;1.85;;;-3.70;99.90;;;;;;4952562;29;20526;-84
2024/01/10 06:14:17;;;;;;;6.60;2.53;;;-3.70;99.90;;;;;;4953860;28;20028;-84
2024/01/10 06:16:44;;;;;;;6.75;2.28;;;-3.70;99.90;;;;;;4972999;28;20487;-84
2024/01/10 06:19:11;;;;;;;6.20;2.28;;;-3.70;99.90;;;;;;4976560;28;20602;-84
2024/01/10 06:21:37;;;;;;;6.38;2.08;;;-3.60;99.90;;;;;;4976779;28;20031;-85
2024/01/10 06:24:04;;;;;;;4.65;2.63;;;-3.60;99.90;;;;;;4976393;28;20022;-84
2024/01/10 06:26:29;;;;;;;3.17;2.08;;;-3.60;99.90;;;;;;4977202;28;20038;-85
2024/01/10 06:28:55;;;;;;;4.13;2.25;;;-3.60;99.90;;;;;;4995664;28;20405;-84
2024/01/10 06:31:21;;;;;;;3.78;1.65;;;-3.50;99.90;;;;;;4997139;28;20434;-84
2024/01/10 06:33:47;;;;;;;5.00;2.85;;;-3.60;99.90;;;;;;4996933;28;20031;-85
2024/01/10 06:36:13;;;;;;;7.15;2.10;;;-3.50;99.90;;;;;;4995899;28;20069;-85
2024/01/10 06:38:39;;;;;;;5.45;2.20;;;-3.60;99.90;;;;;;4995365;28;20027;-84
2024/01/10 06:41:09;;;;;;;6.15;2.35;;;-3.70;99.90;;;;;;4995365;28;20110;-85
2024/01/10 06:43:36;;;;;;;4.28;2.58;;;-3.70;99.90;;;;;;4995031;28;20034;-85
2024/01/10 06:46:03;;;;;;;3.08;1.60;;;-3.80;99.90;;;;;;4996474;28;20437;-82
2024/01/10 06:48:29;;;;;;;5.07;2.72;;;-3.70;99.90;;;;;;4994679;28;20030;-84
2024/01/10 06:50:55;;;;;;;4.28;2.55;;;-3.80;99.90;;;;;;4995123;28;20433;-84
2024/01/10 06:53:21;;;;;;;5.40;2.63;;;-3.80;99.90;;;;;;4995147;28;20499;-84
2024/01/10 06:55:50;;;;;;;5.85;2.60;;;-3.80;99.90;;;;;;4996718;28;20019;-83
2024/01/10 06:58:15;;;;;;;5.00;2.47;;;-3.70;99.90;;;;;;4995075;28;20407;-83
2024/01/10 07:00:41;;;;;;;4.53;2.22;;;-3.80;99.90;;;;;;4996183;28;20011;-83
2024/01/10 07:03:07;;;;;;;3.15;1.83;;;-3.80;99.90;;;;;;4994850;28;20479;-83
2024/01/10 07:05:33;;;;;;;6.28;2.40;;;-3.90;99.90;;;;;;4996318;28;20101;-83
2024/01/10 07:08:02;;;;;;;6.53;2.70;;;-3.90;99.90;;;;;;4994734;28;20019;-83
2024/01/10 07:10:31;;;;;;;5.15;2.83;;;-4.00;99.90;;;;;;4995524;28;20109;-83
2024/01/10 07:12:57;;;;;;;7.63;3.03;;;-4.00;99.90;;;;;;4994847;28;20494;-84
2024/01/10 07:15:23;;;;;;;3.60;1.83;;;-4.00;99.90;;;;;;4995062;28;20068;-84
2024/01/10 07:17:49;;;;;;;2.47;1.95;;;-3.90;99.90;;;;;;4996044;28;20078;-84
2024/01/10 07:20:14;;;;;;;3.90;1.85;;;-3.90;99.90;;;;;;4994672;28;20102;-84
2024/01/10 07:22:41;;;;;;;2.85;1.73;;;-3.80;99.90;;;;;;4994517;28;20026;-87
2024/01/10 07:25:14;;;;;;;4.07;2.40;;;-3.90;99.90;;;;;;4996002;28;20045;-84
2024/01/10 07:27:43;;;;;;;3.92;1.83;;;-3.90;99.90;;;;;;4995968;28;20026;-84
2024/01/10 07:30:15;;;;;;;4.00;2.60;;;-3.80;99.90;;;;;;4974644;28;20035;-83
2024/01/10 07:32:45;;;;;;;10.73;2.40;;;-3.80;99.90;;;;;;4958095;28;20035;-85
2024/01/10 07:35:12;;;;;;;4.32;2.08;;;-3.90;99.90;;;;;;4958074;28;20078;-84
2024/01/10 07:37:39;;;;;;;4.97;2.05;;;-3.90;99.90;;;;;;4958113;28;20062;-85
2024/01/10 07:40:06;;;;;;;7.47;3.03;;;-3.90;99.90;;;;;;4958210;28;20035;-85
2024/01/10 07:42:35;;;;;;;10.20;1.65;;;-3.90;99.90;;;;;;4958100;28;20034;-84
2024/01/10 07:45:04;;;;;;;4.03;1.77;;;-3.80;99.90;;;;;;4958049;28;20070;-84
2024/01/10 07:50:14;;;;;;;3.30;1.88;;;-3.80;99.90;;;;;;4973648;28;20483;-84
2024/01/10 07:52:40;;;;;;;5.57;2.30;;;-3.90;99.90;;;;;;4954251;29;20039;-84
2024/01/10 07:55:06;;;;;;;5.93;2.10;;;-3.80;99.90;;;;;;4954478;29;20492;-83
2024/01/10 07:57:33;;;;;;;7.88;3.38;;;-3.80;99.90;;;;;;4954386;29;20035;-84
2024/01/10 07:59:59;;;;;;;11.07;2.90;;;-3.80;99.90;;;;;;4955072;28;20118;-84
2024/01/10 08:02:25;;;;;;;4.85;2.35;;;-3.70;99.90;;;;;;4974800;28;20158;-84
2024/01/10 08:04:52;;;;;;;10.25;1.83;;;-3.60;99.90;;;;;;4991205;28;20487;-84
2024/01/10 08:07:19;;;;;;;7.28;2.63;;;-3.60;99.90;;;;;;4974830;28;20027;-84
2024/01/10 08:09:45;;;;;;;3.70;2.08;;;-3.50;99.90;;;;;;4987501;28;20030;-85
2024/01/10 08:12:11;;;;;;;8.68;2.97;;;-3.50;99.90;;;;;;4995495;28;20033;-85
2024/01/10 08:14:37;;;;;;;4.40;2.38;;;-3.40;99.90;;;;;;4994555;28;20030;-85
2024/01/10 08:17:03;;;;;;;1.92;1.60;;;-3.50;99.90;;;;;;4994046;28;20023;-85
2024/01/10 08:19:29;;;;;;;4.63;2.13;;;-3.50;99.90;;;;;;4993592;28;20033;-85
2024/01/10 08:21:56;;;;;;;3.30;1.85;;;-3.60;99.90;;;;;;4993498;28;20494;-85
2024/01/10 08:24:22;;;;;;;4.18;1.83;;;-3.50;99.90;;;;;;4993470;28;20034;-84
2024/01/10 08:26:52;;;;;;;5.80;2.38;;;-3.50;99.90;;;;;;4994935;28;20387;-85
2024/01/10 08:29:18;;;;;;;8.98;2.65;;;-3.50;99.90;;;;;;4993398;28;20025;-85
2024/01/10 08:31:45;;;;;;;9.10;2.58;;;-3.40;99.90;;;;;;4994636;28;20045;-85
2024/01/10 08:34:11;;;;;;;5.25;2.70;;;-3.40;99.90;;;;;;4990749;28;20096;-84
2024/01/10 08:36:37;;;;;;;4.53;2.13;;;-3.40;99.90;;;;;;4994561;28;20137;-84
2024/01/10 08:39:03;;;;;;;5.93;2.42;;;-3.50;99.90;;;;;;4992748;28;20036;-82
2024/01/10 08:41:30;;;;;;;6.07;3.10;;;-3.40;99.90;;;;;;4994205;28;20494;-83
2024/01/10 08:43:56;;;;;;;4.15;2.22;;;-3.40;99.90;;;;;;4992852;28;20165;-82
2024/01/10 08:46:24;;;;;;;3.78;2.17;;;-3.30;99.90;;;;;;4993148;28;20098;-82
2024/01/10 08:48:50;;;;;;;4.28;2.20;;;-3.20;99.90;;;;;;4992807;28;20041;-81
2024/01/10 08:51:16;;;;;;;8.07;2.35;;;-3.20;99.90;;;;;;4993055;28;20034;-81
2024/01/10 08:53:43;;;;;;;6.45;2.35;;;-3.10;99.90;;;;;;4992967;28;20037;-83
2024/01/10 08:56:10;;;;;;;4.10;2.38;;;-3.00;99.90;;;;;;4994428;28;20029;-82
2024/01/10 08:58:35;;;;;;;5.43;2.05;;;-3.00;99.90;;;;;;4994100;28;20101;-80
2024/01/10 09:01:01;;;;;;;5.50;2.50;;;-3.00;99.90;;;;;;4993829;28;20449;-82
2024/01/10 09:03:27;;;;;;;3.90;1.85;;;-3.00;99.90;;;;;;4992866;28;20064;-81
2024/01/10 09:05:52;;;;;;;6.85;2.33;;;-3.00;99.90;;;;;;4994214;28;20058;-83
2024/01/10 09:08:18;;;;;;;6.93;1.90;;;-3.00;99.90;;;;;;4992709;28;20455;-82
2024/01/10 09:10:43;;;;;;;4.18;2.35;;;-2.90;99.90;;;;;;5012067;28;20084;-82
2024/01/10 09:13:09;;;;;;;4.57;2.08;;;-2.90;99.90;;;;;;5012043;28;20025;-83
2024/01/10 09:15:35;;;;;;;3.33;1.95;;;-2.80;99.90;;;;;;5012139;28;20034;-82
2024/01/10 09:18:00;;;;;;;4.57;2.47;;;-2.80;99.90;;;;;;5000158;28;20386;-83
2024/01/10 09:20:26;;;;;;;3.13;1.85;;;-2.70;99.90;;;;;;4992575;28;20062;-82
2024/01/10 09:22:51;;;;;;;3.22;1.80;;;-2.70;99.90;;;;;;4993662;28;20117;-82
2024/01/10 09:25:17;;;;;;;5.10;2.05;;;-2.60;99.90;;;;;;4994041;28;20455;-82
2024/01/10 09:27:44;;;;;;;3.85;2.53;;;-2.50;99.90;;;;;;4992246;28;20026;-82
2024/01/10 09:30:11;;;;;;;4.90;2.00;;;-2.40;99.90;;;;;;4992383;28;20025;-82
2024/01/10 09:32:36;;;;;;;6.95;2.47;;;-2.40;99.90;;;;;;4992520;28;20026;-82
2024/01/10 09:35:03;;;;;;;3.22;2.78;;;-2.40;99.90;;;;;;4992300;28;20023;-82
2024/01/10 09:37:28;;;;;;;7.55;2.60;;;-2.40;99.90;;;;;;4993688;28;20026;-82
2024/01/10 09:39:54;;;;;;;5.97;2.45;;;-2.30;99.90;;;;;;4993618;28;20033;-81
2024/01/10 09:42:25;;;;;;;3.72;2.25;;;-2.10;99.90;;;;;;4993649;28;20512;-82
2024/01/10 09:44:52;;;;;;;4.43;2.22;;;-2.00;99.90;;;;;;4993561;28;20028;-81
2024/01/10 09:47:20;;;;;;;7.40;3.00;;;-1.90;99.90;;;;;;4992296;28;20038;-81
2024/01/10 09:49:46;;;;;;;6.35;2.45;;;-1.90;99.90;;;;;;4993939;28;20052;-77
2024/01/10 09:52:23;;;;;;;10.90;2.90;;;-1.80;99.90;;;;;;4997079;28;20109;-77
2024/01/10 09:54:54;;;;;;;5.72;2.40;;;-1.80;99.90;;;;;;4995866;28;20030;-72
2024/01/10 09:57:20;;;;;;;10.25;3.22;;;-1.80;99.90;;;;;;4997051;28;20548;-72
2024/01/10 09:59:47;;;;;;;5.05;2.00;;;-1.70;99.90;;;;;;4996868;28;20025;-71
2024/01/10 10:02:16;;;;;;;5.00;2.67;;;-1.60;99.90;;;;;;4996656;28;20433;-71
2024/01/10 10:05:07;;;;;;;6.75;2.97;;;-1.50;99.90;;;;;;4996743;28;20031;-71
2024/01/10 10:07:55;;;;;;;5.90;2.33;;;-1.40;99.90;;;;;;4996581;28;20048;-71
2024/01/10 10:10:21;;;;;;;6.28;2.58;;;-1.40;99.90;;;;;;4995401;28;20509;-74
2024/01/10 10:12:49;;;;;;;15.32;2.95;;;-1.30;99.90;;;;;;4995470;28;20038;-72
2024/01/10 10:15:21;;;;;;;4.45;1.98;;;-1.20;99.90;;;;;;4995488;28;20471;-73
2024/01/10 10:17:48;;;;;;;7.18;2.67;;;-1.20;99.90;;;;;;4995336;28;20057;-72
2024/01/10 10:20:33;;;;;;;5.22;2.53;;;-1.10;99.90;;;;;;4995261;28;20023;-73
2024/01/10 10:23:12;;;;;;;7.07;2.85;;;-1.00;99.90;;;;;;4996427;28;20398;-71
2024/01/10 10:25:44;;;;;;;5.15;2.33;;;-0.80;99.90;;;;;;4996328;28;20423;-72
2024/01/10 10:28:09;;;;;;;3.88;2.58;;;-0.80;99.90;;;;;;4995113;28;20044;-71
2024/01/10 10:30:35;;;;;;;12.10;2.55;;;-0.60;99.90;;;;;;4996364;28;20471;-72
2024/01/10 10:33:05;;;;;;;5.75;2.75;;;-0.60;99.90;;;;;;4995047;28;20065;-71
2024/01/10 10:35:32;;;;;;;4.93;2.75;;;-0.60;99.90;;;;;;4996309;28;20038;-71
2024/01/10 10:37:58;;;;;;;5.53;2.27;;;-0.50;99.90;;;;;;4994775;28;20050;-71
2024/01/10 10:40:24;;;;;;;9.18;2.63;;;-0.40;99.90;;;;;;4996200;28;20080;-71
2024/01/10 10:42:55;;;;;;;12.93;3.53;;;-0.40;99.90;;;;;;4994595;28;20031;-70
2024/01/10 10:45:26;;;;;;;6.00;3.47;;;-0.50;99.90;;;;;;4996112;28;20428;-70
2024/01/10 10:47:57;;;;;;;6.72;2.58;;;-0.40;99.90;;;;;;4995960;28;20482;-70
2024/01/10 10:50:24;;;;;;;5.10;2.55;;;-0.40;99.90;;;;;;4996078;28;20161;-73
2024/01/10 10:52:50;;;;;;;5.35;2.50;;;-0.20;99.90;;;;;;4995004;28;20061;-74
2024/01/10 10:55:18;;;;;;;5.38;2.42;;;-0.10;99.90;;;;;;4994588;28;20018;-74
2024/01/10 10:57:48;;;;;;;6.22;2.72;;;0.00;99.90;;;;;;4994596;28;20033;-75
2024/01/10 11:00:17;;;;;;;7.28;3.22;;;0.10;99.90;;;;;;4993935;28;20031;-75
2024/01/10 11:02:46;;;;;;;5.32;3.10;;;0.20;99.90;;;;;;4994137;28;20441;-73
2024/01/10 11:05:12;;;;;;;5.10;2.20;;;0.30;99.70;;;;;;4996049;28;20028;-76
2024/01/10 11:07:44;;;;;;;3.78;2.55;;;0.40;99.90;;;;;;4995687;28;20386;-76
2024/01/10 11:10:24;;;;;;;9.55;3.72;;;0.40;99.90;;;;;;4995573;28;20029;-74
2024/01/10 11:13:25;;;;;;;6.35;2.83;;;0.40;99.90;;;;;;4995644;28;20045;-76
2024/01/10 11:16:32;;;;;;;7.70;2.95;;;0.40;99.80;;;;;;4994353;28;20438;-76
2024/01/10 11:19:16;;;;;;;5.38;2.25;;;0.60;99.00;;;;;;4993951;28;20035;-73
2024/01/10 11:22:15;;;;;;;7.35;3.00;;;0.80;98.90;;;;;;4995699;28;20038;-78
2024/01/10 11:24:41;;;;;;;7.75;3.47;;;0.80;98.10;;;;;;4994147;28;20582;-76
2024/01/10 11:27:11;;;;;;;5.05;2.40;;;0.90;98.30;;;;;;4994351;28;20093;-77
2024/01/10 11:29:39;;;;;;;7.50;2.63;;;0.90;97.70;;;;;;4994339;28;20027;-76
2024/01/10 11:32:06;;;;;;;9.88;2.75;;;1.00;97.30;;;;;;4995438;28;20034;-75
2024/01/10 11:34:32;;;;;;;6.20;2.33;;;1.10;97.20;;;;;;4995376;28;20046;-77
2024/01/10 11:37:11;;;;;;;5.82;2.65;;;1.00;97.70;;;;;;4995400;28;20030;-76
2024/01/10 11:39:37;;;;;;;13.02;3.35;;;0.90;97.50;;;;;;4993986;28;20088;-75
2024/01/10 11:42:03;;;;;;;7.72;3.17;;;0.90;97.70;;;;;;4993964;28;20113;-76
2024/01/10 11:44:29;;;;;;;5.30;1.85;;;0.90;97.50;;;;;;4994187;28;20110;-75
2024/01/10 11:46:57;;;;;;;5.25;2.83;;;0.90;97.60;;;;;;4995165;28;20041;-75
2024/01/10 11:49:24;;;;;;;7.30;2.97;;;1.00;97.60;;;;;;4994543;28;20502;-75
2024/01/10 11:52:00;;;;;;;6.32;2.92;;;1.10;96.80;;;;;;4994859;28;20278;-78
2024/01/10 11:54:43;;;;;;;5.70;2.88;;;1.00;97.00;;;;;;4995111;28;20034;-78
2024/01/10 11:57:17;;;;;;;10.20;2.88;;;1.20;96.90;;;;;;4994890;28;20105;-77
2024/01/10 11:59:45;;;;;;;11.38;3.00;;;1.10;96.90;;;;;;4994718;28;20030;-74
2024/01/10 12:02:12;;;;;;;6.65;2.95;;;1.20;96.80;;;;;;4990812;28;20038;-75
2024/01/10 12:04:39;;;;;;;6.25;2.83;;;1.20;96.60;;;;;;4995142;28;20027;-77
2024/01/10 12:07:07;;;;;;;6.05;3.00;;;1.30;96.40;;;;;;4993462;28;20029;-78
2024/01/10 12:09:36;;;;;;;10.00;2.90;;;1.20;96.60;;;;;;5003360;28;20026;-76
2024/01/10 12:12:03;;;;;;;5.80;2.80;;;1.40;96.40;;;;;;5012843;28;20127;-76
2024/01/10 12:14:29;;;;;;;5.45;2.53;;;1.50;96.30;;;;;;5014233;28;20417;-74
2024/01/10 12:16:54;;;;;;;7.15;3.42;;;1.60;96.50;;;;;;5013096;28;20037;-75
2024/01/10 12:19:20;;;;;;;6.40;3.05;;;1.70;96.10;;;;;;5014170;28;20486;-75
2024/01/10 12:21:47;;;;;;;7.97;3.00;;;1.70;96.10;;;;;;5014146;28;20040;-73
2024/01/10 12:24:13;;;;;;;5.83;2.07;;;1.60;96.20;;;;;;5006930;28;20030;-74
2024/01/10 12:26:46;;;;;;;6.88;3.08;;;1.70;95.80;;;;;;4994341;28;20029;-74
2024/01/10 12:29:12;;;;;;;7.90;3.03;;;1.60;95.80;;;;;;4994301;28;20080;-74
2024/01/10 12:31:42;;;;;;;6.07;2.70;;;1.70;95.80;;;;;;4993044;28;20053;-74
2024/01/10 12:34:09;;;;;;;5.63;2.58;;;1.60;95.60;;;;;;4992961;28;20035;-74
2024/01/10 12:36:35;;;;;;;5.10;2.28;;;1.70;96.20;;;;;;4992912;28;20394;-74
2024/01/10 12:39:01;;;;;;;8.15;3.22;;;1.70;96.00;;;;;;4992780;28;20030;-73
2024/01/10 12:41:27;;;;;;;10.65;4.22;;;1.80;96.20;;;;;;4993814;28;20037;-75
2024/01/10 12:43:56;;;;;;;5.63;2.55;;;1.90;96.20;;;;;;4994297;28;20030;-75
2024/01/10 12:46:25;;;;;;;7.40;2.80;;;1.80;96.20;;;;;;4994033;28;20455;-73
2024/01/10 12:49:05;;;;;;;8.80;2.50;;;1.90;95.90;;;;;;4993770;28;20042;-74
2024/01/10 12:51:31;;;;;;;5.90;3.60;;;1.90;96.20;;;;;;4993962;28;20038;-74